Time;durP1;ratioP1;P1;durP2;ratioP2;P2;SDS_P1;SDS_P2;PMS_P1;PMS_P2;Temp;Humidity;BMP_temperature;BMP_pressure;BME280_temperature;BME280_humidity;BME280_pressure;Samples;Min_cycle;Max_cycle;Signal;HPM_P1;HPM_P2
2022/10/06 00:00:09;;;;;;;10.25;4.18;;;;;;;;;;5032208;28;20025;-75
2022/10/06 00:02:36;;;;;;;11.77;3.97;;;;;;;;;;5032130;28;20032;-75
2022/10/06 00:05:02;;;;;;;9.00;4.25;;;;;;;;;;5047303;28;20040;-75
2022/10/06 00:07:29;;;;;;;9.25;4.28;;;;;;;;;;5031749;28;20047;-75
2022/10/06 00:09:55;;;;;;;7.82;4.35;;;;;;;;;;5032140;28;20028;-75
2022/10/06 00:12:22;;;;;;;9.32;4.68;;;;;;;;;;5031509;28;20038;-75
2022/10/06 00:14:48;;;;;;;8.38;4.57;;;;;;;;;;5031929;28;20047;-76
2022/10/06 00:17:14;;;;;;;10.48;5.00;;;;;;;;;;5032189;28;20034;-75
2022/10/06 00:19:40;;;;;;;10.68;4.43;;;;;;;;;;5031669;28;20482;-75
2022/10/06 00:22:07;;;;;;;9.95;4.18;;;;;;;;;;5031887;28;20030;-75
2022/10/06 00:24:33;;;;;;;9.05;4.95;;;;;;;;;;5031682;28;20025;-75
2022/10/06 00:27:00;;;;;;;10.82;4.43;;;;;;;;;;5046826;28;20034;-75
2022/10/06 00:29:26;;;;;;;8.70;4.57;;;;;;;;;;5032843;28;20030;-75
2022/10/06 00:31:54;;;;;;;12.05;4.97;;;;;;;;;;5030927;28;20040;-75
2022/10/06 00:34:20;;;;;;;12.77;4.70;;;;;;;;;;5032094;28;20017;-75
2022/10/06 00:36:46;;;;;;;10.38;4.65;;;;;;;;;;5031995;28;20043;-74
2022/10/06 00:39:12;;;;;;;8.32;4.85;;;;;;;;;;5032994;28;20028;-75
2022/10/06 00:41:39;;;;;;;9.50;4.82;;;;;;;;;;5035119;28;20044;-75
2022/10/06 00:44:05;;;;;;;8.43;4.40;;;;;;;;;;5035359;28;20083;-75
2022/10/06 00:46:37;;;;;;;9.32;4.85;;;;;;;;;;5035416;28;20099;-75
2022/10/06 00:49:18;;;;;;;11.13;5.30;;;;;;;;;;5035612;28;20022;-75
2022/10/06 00:51:45;;;;;;;;;;;;;;;;;;5035613;28;20025;-75
2022/10/06 00:54:12;;;;;;;9.80;4.68;;;;;;;;;;5035138;28;19905;-75
2022/10/06 00:56:39;;;;;;;9.23;5.03;;;;;;;;;;5034915;28;20482;-75
2022/10/06 00:59:09;;;;;;;8.38;4.68;;;;;;;;;;5035243;28;20021;-75
2022/10/06 01:01:36;;;;;;;7.38;4.18;;;;;;;;;;5034898;28;20033;-75
2022/10/06 01:04:06;;;;;;;13.38;4.53;;;;;;;;;;5035321;28;20037;-75
2022/10/06 01:06:46;;;;;;;8.70;4.70;;;;;;;;;;5034747;28;20040;-75
2022/10/06 01:09:13;;;;;;;8.73;4.60;;;;;;;;;;5034611;28;20021;-75
2022/10/06 01:11:40;;;;;;;8.00;4.43;;;;;;;;;;5034947;28;20030;-75
2022/10/06 01:14:06;;;;;;;12.32;5.38;;;;;;;;;;5034660;28;20406;-74
2022/10/06 01:16:36;;;;;;;5.90;3.97;;;;;;;;;;5035094;28;20032;-75
2022/10/06 01:19:04;;;;;;;10.98;4.85;;;;;;;;;;5034780;28;20051;-75
2022/10/06 01:21:34;;;;;;;9.00;3.97;;;;;;;;;;5034619;28;20031;-76
2022/10/06 01:24:03;;;;;;;7.93;4.20;;;;;;;;;;5034304;28;20021;-75
2022/10/06 01:26:31;;;;;;;7.20;4.20;;;;;;;;;;5034907;28;20038;-75
2022/10/06 01:28:57;;;;;;;10.38;4.53;;;;;;;;;;5034617;28;20021;-75
2022/10/06 01:31:24;;;;;;;9.20;4.65;;;;;;;;;;5034860;28;20039;-75
2022/10/06 01:33:51;;;;;;;12.68;4.70;;;;;;;;;;5034586;28;20018;-75
2022/10/06 01:36:17;;;;;;;8.75;4.50;;;;;;;;;;5034891;28;20021;-75
2022/10/06 01:38:44;;;;;;;9.57;4.50;;;;;;;;;;5034298;28;20035;-75
2022/10/06 01:41:10;;;;;;;8.57;4.50;;;;;;;;;;5034238;28;20024;-75
2022/10/06 01:43:36;;;;;;;11.05;4.47;;;;;;;;;;5034574;28;20424;-75
2022/10/06 01:46:03;;;;;;;9.63;4.43;;;;;;;;;;5034156;28;20497;-75
2022/10/06 01:48:29;;;;;;;8.65;4.00;;;;;;;;;;5035114;28;20030;-75
2022/10/06 01:50:55;;;;;;;8.90;4.38;;;;;;;;;;5033022;28;20025;-75
2022/10/06 01:53:22;;;;;;;9.95;5.00;;;;;;;;;;5033803;28;20100;-75
2022/10/06 01:55:48;;;;;;;8.15;4.70;;;;;;;;;;5033989;28;20028;-75
2022/10/06 01:58:15;;;;;;;8.02;4.30;;;;;;;;;;5034143;28;20479;-75
2022/10/06 02:00:41;;;;;;;10.32;4.47;;;;;;;;;;5033939;28;20406;-75
2022/10/06 02:03:08;;;;;;;10.20;5.20;;;;;;;;;;5033880;28;20032;-75
2022/10/06 02:05:34;;;;;;;10.98;5.13;;;;;;;;;;5034315;28;20021;-75
2022/10/06 02:08:01;;;;;;;6.50;4.45;;;;;;;;;;5048912;28;20030;-75
2022/10/06 02:10:28;;;;;;;10.82;4.90;;;;;;;;;;5049463;28;20405;-74
2022/10/06 02:12:54;;;;;;;7.60;4.80;;;;;;;;;;5033580;28;20134;-75
2022/10/06 02:15:21;;;;;;;7.57;4.70;;;;;;;;;;5049054;28;20036;-75
2022/10/06 02:17:47;;;;;;;13.20;5.68;;;;;;;;;;5033661;28;20512;-75
2022/10/06 02:20:14;;;;;;;13.93;5.57;;;;;;;;;;5033662;28;20048;-75
2022/10/06 02:22:42;;;;;;;7.32;4.20;;;;;;;;;;5033154;28;20494;-75
2022/10/06 02:25:09;;;;;;;9.35;5.07;;;;;;;;;;5034029;28;20031;-75
2022/10/06 02:27:35;;;;;;;6.80;4.40;;;;;;;;;;5033582;28;20033;-75
2022/10/06 02:30:01;;;;;;;7.40;4.22;;;;;;;;;;5033264;28;20390;-75
2022/10/06 02:32:35;;;;;;;6.38;4.22;;;;;;;;;;5033407;28;20180;-75
2022/10/06 02:35:02;;;;;;;8.48;4.00;;;;;;;;;;5033567;28;20470;-74
2022/10/06 02:37:29;;;;;;;6.88;4.25;;;;;;;;;;5032881;28;20030;-74
2022/10/06 02:39:56;;;;;;;7.90;4.20;;;;;;;;;;5033288;28;20026;-75
2022/10/06 02:42:22;;;;;;;6.20;4.03;;;;;;;;;;5033082;28;20029;-75
2022/10/06 02:44:51;;;;;;;5.35;4.38;;;;;;;;;;5033302;28;20017;-75
2022/10/06 02:47:18;;;;;;;8.93;4.50;;;;;;;;;;5032871;28;20044;-75
2022/10/06 02:49:44;;;;;;;8.98;4.18;;;;;;;;;;5033078;28;20028;-75
2022/10/06 02:52:11;;;;;;;8.02;4.10;;;;;;;;;;5032650;28;20489;-75
2022/10/06 02:54:37;;;;;;;5.50;4.28;;;;;;;;;;5032857;28;20024;-75
2022/10/06 02:57:03;;;;;;;6.65;4.50;;;;;;;;;;5033057;28;20025;-75
2022/10/06 02:59:30;;;;;;;10.48;5.13;;;;;;;;;;5033195;28;20021;-75
2022/10/06 03:01:56;;;;;;;7.55;4.72;;;;;;;;;;5047706;28;20029;-75
2022/10/06 03:04:22;;;;;;;10.95;4.93;;;;;;;;;;5033679;28;20029;-75
2022/10/06 03:06:49;;;;;;;9.82;4.57;;;;;;;;;;5032298;28;20498;-75
2022/10/06 03:09:17;;;;;;;8.02;3.90;;;;;;;;;;5032947;28;20017;-75
2022/10/06 03:11:44;;;;;;;5.97;4.30;;;;;;;;;;5032672;28;20024;-75
2022/10/06 03:14:10;;;;;;;8.45;4.57;;;;;;;;;;5032504;28;20056;-76
2022/10/06 03:16:40;;;;;;;8.02;4.55;;;;;;;;;;5032502;28;20102;-74
2022/10/06 03:19:07;;;;;;;7.80;4.30;;;;;;;;;;5032646;28;20024;-75
2022/10/06 03:21:35;;;;;;;8.48;4.05;;;;;;;;;;5032120;28;20028;-75
2022/10/06 03:24:01;;;;;;;6.13;4.20;;;;;;;;;;5032530;28;20024;-75
2022/10/06 03:26:29;;;;;;;6.57;4.10;;;;;;;;;;5032390;28;20025;-75
2022/10/06 03:28:56;;;;;;;8.13;3.90;;;;;;;;;;5032315;28;20030;-75
2022/10/06 03:31:22;;;;;;;9.15;4.43;;;;;;;;;;5032698;28;20021;-75
2022/10/06 03:33:50;;;;;;;9.18;4.32;;;;;;;;;;5031956;28;20021;-75
2022/10/06 03:36:17;;;;;;;7.65;4.22;;;;;;;;;;5032500;28;20021;-74
2022/10/06 03:38:43;;;;;;;5.43;3.83;;;;;;;;;;5032732;28;20021;-75
2022/10/06 03:41:18;;;;;;;9.15;4.20;;;;;;;;;;5032262;28;20028;-75
2022/10/06 03:43:45;;;;;;;7.80;4.20;;;;;;;;;;5032233;28;20025;-75
2022/10/06 03:46:12;;;;;;;6.47;4.35;;;;;;;;;;5032241;28;20029;-75
2022/10/06 03:48:39;;;;;;;11.35;4.40;;;;;;;;;;5031962;28;20037;-74
2022/10/06 03:51:16;;;;;;;6.70;4.78;;;;;;;;;;5032152;28;20478;-73
2022/10/06 03:53:46;;;;;;;6.10;4.05;;;;;;;;;;5032214;28;20091;-75
2022/10/06 03:56:12;;;;;;;7.97;4.05;;;;;;;;;;5031907;28;20018;-75
2022/10/06 03:58:39;;;;;;;8.57;4.40;;;;;;;;;;5031980;28;20021;-75
2022/10/06 04:01:07;;;;;;;11.88;3.63;;;;;;;;;;5032389;28;20029;-75
2022/10/06 04:03:34;;;;;;;5.50;3.60;;;;;;;;;;5031603;28;20051;-75
2022/10/06 04:06:01;;;;;;;10.43;3.63;;;;;;;;;;5032141;28;20030;-75
2022/10/06 04:08:28;;;;;;;8.60;3.50;;;;;;;;;;5031938;28;20021;-75
2022/10/06 04:10:55;;;;;;;6.35;3.15;;;;;;;;;;5031907;28;20044;-75
2022/10/06 04:13:22;;;;;;;7.40;3.80;;;;;;;;;;5031713;28;20498;-75
2022/10/06 04:15:48;;;;;;;9.43;3.78;;;;;;;;;;5035984;28;20047;-74
2022/10/06 04:18:15;;;;;;;8.43;4.03;;;;;;;;;;5034701;28;20033;-75
2022/10/06 04:20:41;;;;;;;5.82;3.83;;;;;;;;;;5035886;28;20033;-74
2022/10/06 04:23:09;;;;;;;6.28;4.00;;;;;;;;;;5036231;28;20014;-75
2022/10/06 04:25:35;;;;;;;9.20;4.05;;;;;;;;;;5035922;28;20022;-75
2022/10/06 04:28:02;;;;;;;7.78;3.80;;;;;;;;;;5035716;28;20042;-75
2022/10/06 04:30:29;;;;;;;7.72;4.00;;;;;;;;;;5035592;28;20079;-75
2022/10/06 04:32:56;;;;;;;7.25;3.95;;;;;;;;;;5035165;28;20037;-75
2022/10/06 04:35:23;;;;;;;8.32;4.10;;;;;;;;;;5035536;28;20374;-75
2022/10/06 04:37:50;;;;;;;7.00;3.92;;;;;;;;;;5035540;28;20035;-75
2022/10/06 04:40:17;;;;;;;7.78;4.53;;;;;;;;;;5035475;28;20124;-75
2022/10/06 04:42:44;;;;;;;7.43;3.78;;;;;;;;;;5034346;28;20029;-75
2022/10/06 04:45:10;;;;;;;10.75;4.70;;;;;;;;;;5035492;28;20033;-75
2022/10/06 04:47:36;;;;;;;9.52;4.25;;;;;;;;;;5035105;28;20039;-75
2022/10/06 04:50:03;;;;;;;9.50;4.50;;;;;;;;;;5035379;28;20032;-75
2022/10/06 04:52:29;;;;;;;7.93;4.50;;;;;;;;;;5035200;28;20032;-75
2022/10/06 04:54:56;;;;;;;9.55;4.10;;;;;;;;;;5034201;28;20203;-75
2022/10/06 04:57:22;;;;;;;6.93;4.00;;;;;;;;;;5035160;28;20040;-75
2022/10/06 05:02:35;;;;;;;13.00;4.70;;;;;;;;;;5034785;28;20037;-75
2022/10/06 05:05:01;;;;;;;9.57;5.10;;;;;;;;;;5050676;28;20017;-75
2022/10/06 05:07:27;;;;;;;7.28;4.30;;;;;;;;;;5035077;28;20041;-74
2022/10/06 05:09:54;;;;;;;6.60;4.05;;;;;;;;;;5035149;28;20363;-75
2022/10/06 05:12:20;;;;;;;10.20;4.22;;;;;;;;;;5034906;28;20051;-75
2022/10/06 05:14:47;;;;;;;10.32;4.43;;;;;;;;;;5035121;28;20034;-75
2022/10/06 05:17:13;;;;;;;12.55;4.50;;;;;;;;;;5034713;28;20033;-75
2022/10/06 05:19:39;;;;;;;4.75;4.30;;;;;;;;;;5034759;28;20036;-75
2022/10/06 05:22:06;;;;;;;8.48;4.40;;;;;;;;;;5050129;28;20025;-75
2022/10/06 05:24:32;;;;;;;6.50;4.25;;;;;;;;;;5034734;28;20025;-74
2022/10/06 05:27:00;;;;;;;11.05;4.55;;;;;;;;;;5034867;28;20041;-75
2022/10/06 05:29:26;;;;;;;9.82;4.25;;;;;;;;;;5034639;28;20071;-75
2022/10/06 05:31:54;;;;;;;10.00;4.75;;;;;;;;;;5034070;28;20508;-75
2022/10/06 05:34:20;;;;;;;7.80;4.25;;;;;;;;;;5034791;28;20035;-75
2022/10/06 05:36:47;;;;;;;7.47;3.78;;;;;;;;;;5034482;28;20037;-75
2022/10/06 05:39:13;;;;;;;10.38;4.55;;;;;;;;;;5034389;28;20025;-75
2022/10/06 05:41:39;;;;;;;9.73;4.85;;;;;;;;;;5034431;28;20025;-75
2022/10/06 05:44:07;;;;;;;10.18;4.47;;;;;;;;;;5034200;28;20025;-75
2022/10/06 05:46:34;;;;;;;6.60;4.28;;;;;;;;;;5034007;28;20064;-75
2022/10/06 05:49:09;;;;;;;9.15;4.40;;;;;;;;;;5049742;28;20052;-74
2022/10/06 05:51:36;;;;;;;7.78;4.32;;;;;;;;;;5034198;28;20032;-75
2022/10/06 05:54:02;;;;;;;10.15;4.82;;;;;;;;;;5034217;28;20026;-74
2022/10/06 05:56:29;;;;;;;8.55;4.85;;;;;;;;;;5032880;28;20036;-75
2022/10/06 05:58:57;;;;;;;14.27;4.95;;;;;;;;;;5033688;28;20020;-75
2022/10/06 06:01:34;;;;;;;8.35;5.32;;;;;;;;;;5033953;28;20052;-75
2022/10/06 06:04:02;;;;;;;11.93;5.03;;;;;;;;;;5032061;28;20021;-74
2022/10/06 06:06:29;;;;;;;7.15;4.60;;;;;;;;;;5033618;28;20017;-74
2022/10/06 06:09:06;;;;;;;10.95;4.40;;;;;;;;;;5033611;28;20056;-74
2022/10/06 06:11:33;;;;;;;7.35;4.68;;;;;;;;;;5033777;28;20029;-75
2022/10/06 06:15:59;;;;;;;6.95;4.05;;;;;;;;;;5032729;28;20422;-75
2022/10/06 06:17:06;;;;;;;19.17;4.75;;;;;;;;;;5033605;28;20043;-75
2022/10/06 06:19:32;;;;;;;6.00;4.10;;;;;;;;;;5033399;28;20022;-75
2022/10/06 06:21:58;;;;;;;11.27;4.30;;;;;;;;;;5033095;28;20471;-75
2022/10/06 06:24:25;;;;;;;7.82;4.30;;;;;;;;;;5033329;28;20095;-75
2022/10/06 06:26:51;;;;;;;8.48;4.75;;;;;;;;;;5033039;28;20041;-75
2022/10/06 06:29:17;;;;;;;9.80;5.60;;;;;;;;;;5032924;28;20033;-75
2022/10/06 06:31:45;;;;;;;26.65;17.02;;;;;;;;;;5036632;28;20032;-75
2022/10/06 06:34:11;;;;;;;33.08;23.33;;;;;;;;;;5032924;28;20024;-75
2022/10/06 06:36:39;;;;;;;19.33;13.73;;;;;;;;;;5025902;28;20060;-75
2022/10/06 06:39:07;;;;;;;16.25;10.63;;;;;;;;;;5013252;28;20022;-75
2022/10/06 06:41:38;;;;;;;13.63;7.03;;;;;;;;;;5024731;28;20034;-75
2022/10/06 06:44:10;;;;;;;14.70;5.50;;;;;;;;;;5031551;28;20551;-75
2022/10/06 06:46:37;;;;;;;7.07;4.15;;;;;;;;;;5032110;28;20371;-75
2022/10/06 06:49:04;;;;;;;6.55;3.58;;;;;;;;;;5031706;28;20026;-75
2022/10/06 06:51:39;;;;;;;8.40;3.88;;;;;;;;;;5032350;28;20021;-75
2022/10/06 06:54:06;;;;;;;7.38;4.35;;;;;;;;;;5032355;28;20028;-76
2022/10/06 06:56:35;;;;;;;6.20;3.38;;;;;;;;;;5029937;28;20009;-75
2022/10/06 06:59:05;;;;;;;11.38;3.85;;;;;;;;;;5044962;28;20500;-74
2022/10/06 07:01:31;;;;;;;8.07;3.60;;;;;;;;;;5052021;28;20021;-74
2022/10/06 07:03:58;;;;;;;5.38;3.40;;;;;;;;;;5039479;28;20398;-74
2022/10/06 07:06:27;;;;;;;7.35;3.22;;;;;;;;;;5031513;28;20031;-74
2022/10/06 07:08:54;;;;;;;20.10;3.45;;;;;;;;;;5028949;28;20021;-74
2022/10/06 07:11:20;;;;;;;15.70;3.20;;;;;;;;;;5030618;28;20033;-74
2022/10/06 07:13:51;;;;;;;10.88;3.35;;;;;;;;;;5031100;28;20095;-73
2022/10/06 07:27:27;;;;;;;8.93;2.63;;;;;;;;;;5030571;28;20041;-74
2022/10/06 07:29:53;;;;;;;8.27;2.47;;;;;;;;;;5031017;28;20043;-75
2022/10/06 07:32:23;;;;;;;4.50;2.53;;;;;;;;;;5030956;28;20485;-74
2022/10/06 07:34:50;;;;;;;6.27;2.00;;;;;;;;;;5030914;28;20494;-75
2022/10/06 07:37:17;;;;;;;9.00;2.40;;;;;;;;;;5030562;28;20046;-74
2022/10/06 07:39:45;;;;;;;12.93;2.63;;;;;;;;;;5031193;28;20021;-74
2022/10/06 07:42:13;;;;;;;7.90;2.97;;;;;;;;;;5030327;28;20026;-75
2022/10/06 07:44:41;;;;;;;7.25;2.33;;;;;;;;;;5030647;28;20026;-74
2022/10/06 07:47:08;;;;;;;4.95;2.53;;;;;;;;;;5030796;28;20067;-75
2022/10/06 07:49:34;;;;;;;4.78;1.92;;;;;;;;;;5031091;28;20030;-74
2022/10/06 07:52:04;;;;;;;6.28;2.22;;;;;;;;;;5030560;28;20020;-74
2022/10/06 07:54:30;;;;;;;4.25;1.90;;;;;;;;;;5030719;28;20098;-75
2022/10/06 07:56:56;;;;;;;4.18;1.80;;;;;;;;;;5029992;28;20038;-75
2022/10/06 07:59:22;;;;;;;6.40;2.10;;;;;;;;;;5030657;28;20031;-75
2022/10/06 08:01:51;;;;;;;8.00;2.17;;;;;;;;;;5030636;28;20033;-75
2022/10/06 08:04:17;;;;;;;10.63;2.35;;;;;;;;;;5030700;28;20026;-75
2022/10/06 08:06:43;;;;;;;3.47;1.38;;;;;;;;;;5029979;28;20052;-75
2022/10/06 08:09:10;;;;;;;6.20;1.70;;;;;;;;;;5029431;28;20022;-74
2022/10/06 08:11:36;;;;;;;7.13;1.95;;;;;;;;;;5030217;28;20014;-75
2022/10/06 08:14:02;;;;;;;14.32;1.92;;;;;;;;;;5029010;28;20095;-73
2022/10/06 08:16:29;;;;;;;7.45;1.70;;;;;;;;;;5029849;28;20037;-75
2022/10/06 08:18:58;;;;;;;5.50;1.80;;;;;;;;;;5030401;28;20049;-75
2022/10/06 08:21:29;;;;;;;3.25;1.67;;;;;;;;;;5030401;28;20393;-74
2022/10/06 08:23:56;;;;;;;8.85;1.77;;;;;;;;;;5030066;28;20044;-75
2022/10/06 08:26:23;;;;;;;3.60;1.80;;;;;;;;;;5030563;28;20037;-75
2022/10/06 08:28:51;;;;;;;3.83;1.73;;;;;;;;;;5030119;28;20034;-75
2022/10/06 08:31:19;;;;;;;3.40;1.83;;;;;;;;;;5030339;28;20032;-75
2022/10/06 08:33:46;;;;;;;5.82;1.90;;;;;;;;;;5030321;28;20385;-75
2022/10/06 08:36:18;;;;;;;9.80;2.03;;;;;;;;;;5030793;28;20017;-75
2022/10/06 08:38:49;;;;;;;5.03;1.92;;;;;;;;;;5031172;28;20052;-75
2022/10/06 08:41:15;;;;;;;6.85;2.42;;;;;;;;;;5037686;28;20043;-75
2022/10/06 08:43:42;;;;;;;6.28;2.10;;;;;;;;;;5036767;28;20027;-75
2022/10/06 08:46:13;;;;;;;5.13;1.95;;;;;;;;;;5029287;28;20386;-75
2022/10/06 08:48:39;;;;;;;4.75;1.88;;;;;;;;;;5030196;28;20028;-74
2022/10/06 08:51:12;;;;;;;9.38;1.92;;;;;;;;;;5029435;28;20043;-75
2022/10/06 08:54:01;;;;;;;6.30;2.03;;;;;;;;;;5029972;28;20032;-74
2022/10/06 08:56:32;;;;;;;5.70;1.80;;;;;;;;;;5024459;28;20159;-74
2022/10/06 08:59:04;;;;;;;5.38;2.20;;;;;;;;;;5029776;28;20025;-76
2022/10/06 09:01:37;;;;;;;5.82;2.10;;;;;;;;;;5033326;28;20466;-75
2022/10/06 09:04:06;;;;;;;8.75;2.42;;;;;;;;;;5033608;28;20037;-74
2022/10/06 09:06:32;;;;;;;9.15;2.15;;;;;;;;;;5033528;28;20390;-75
2022/10/06 09:09:21;;;;;;;7.93;2.20;;;;;;;;;;5032888;28;20096;-75
2022/10/06 09:11:50;;;;;;;4.93;1.88;;;;;;;;;;5033512;28;20026;-75
2022/10/06 09:14:27;;;;;;;5.68;1.83;;;;;;;;;;5032644;28;20041;-75
2022/10/06 09:16:59;;;;;;;4.45;1.75;;;;;;;;;;5033457;28;20495;-75
2022/10/06 09:19:48;;;;;;;6.55;2.08;;;;;;;;;;5033330;28;20034;-75
2022/10/06 09:22:17;;;;;;;5.03;1.92;;;;;;;;;;5032312;28;20044;-76
2022/10/06 09:24:50;;;;;;;9.07;1.90;;;;;;;;;;5033380;28;20398;-75
2022/10/06 09:27:23;;;;;;;8.73;1.90;;;;;;;;;;5033072;28;20033;-75
2022/10/06 09:29:50;;;;;;;2.83;1.70;;;;;;;;;;5033126;28;20022;-75
2022/10/06 09:32:18;;;;;;;4.97;1.90;;;;;;;;;;5033395;28;20043;-75
2022/10/06 09:34:52;;;;;;;8.13;1.60;;;;;;;;;;5032449;28;20047;-75
2022/10/06 09:37:19;;;;;;;4.32;1.50;;;;;;;;;;5032233;28;20029;-75
2022/10/06 09:39:48;;;;;;;5.07;1.80;;;;;;;;;;5033107;28;20018;-75
2022/10/06 09:42:25;;;;;;;4.65;1.90;;;;;;;;;;5031759;28;20478;-76
2022/10/06 09:45:00;;;;;;;3.15;1.70;;;;;;;;;;5032687;28;20409;-75
2022/10/06 09:47:45;;;;;;;3.15;1.50;;;;;;;;;;5032497;28;20029;-75
2022/10/06 09:50:15;;;;;;;4.13;1.90;;;;;;;;;;5032999;28;20389;-75
2022/10/06 09:52:42;;;;;;;4.43;1.88;;;;;;;;;;5032483;28;20028;-75
2022/10/06 09:55:08;;;;;;;4.78;2.03;;;;;;;;;;5032674;28;20040;-75
2022/10/06 09:57:36;;;;;;;4.38;1.77;;;;;;;;;;5032858;28;20030;-75
2022/10/06 10:00:04;;;;;;;8.27;2.55;;;;;;;;;;5032118;28;20033;-75
2022/10/06 10:02:39;;;;;;;8.90;2.60;;;;;;;;;;5032366;28;20059;-75
2022/10/06 10:05:18;;;;;;;6.07;2.10;;;;;;;;;;5032376;28;20036;-74
2022/10/06 10:07:46;;;;;;;5.20;2.05;;;;;;;;;;5032828;28;20037;-75
2022/10/06 10:10:24;;;;;;;5.95;2.05;;;;;;;;;;5032389;28;20151;-75
2022/10/06 10:12:50;;;;;;;5.47;2.00;;;;;;;;;;5031487;28;20037;-74
2022/10/06 10:15:17;;;;;;;4.38;1.50;;;;;;;;;;5031899;28;20495;-75
2022/10/06 10:17:43;;;;;;;6.78;1.63;;;;;;;;;;5032425;28;20513;-76
2022/10/06 10:20:32;;;;;;;3.15;1.75;;;;;;;;;;5031855;28;20025;-75
2022/10/06 10:23:03;;;;;;;2.95;1.50;;;;;;;;;;5032476;28;20037;-74
2022/10/06 10:25:48;;;;;;;6.80;1.63;;;;;;;;;;5032141;28;20433;-75
2022/10/06 10:28:16;;;;;;;5.15;1.95;;;;;;;;;;5031854;28;20083;-75
2022/10/06 10:31:05;;;;;;;7.13;1.80;;;;;;;;;;5032073;28;20025;-75
2022/10/06 10:33:40;;;;;;;7.10;1.77;;;;;;;;;;5031658;28;20043;-75
2022/10/06 10:36:07;;;;;;;5.32;1.92;;;;;;;;;;5031452;28;20033;-75
2022/10/06 10:38:39;;;;;;;6.35;2.38;;;;;;;;;;5031804;28;20036;-75
2022/10/06 10:41:27;;;;;;;6.70;1.77;;;;;;;;;;5031519;28;20017;-75
2022/10/06 10:43:55;;;;;;;5.57;1.88;;;;;;;;;;5032045;28;20030;-75
2022/10/06 10:46:26;;;;;;;6.50;1.70;;;;;;;;;;5032043;28;20048;-75
2022/10/06 10:48:57;;;;;;;5.28;2.05;;;;;;;;;;5030581;28;20405;-75
2022/10/06 10:51:29;;;;;;;5.32;1.80;;;;;;;;;;5031875;28;20025;-76
2022/10/06 10:54:02;;;;;;;4.90;1.95;;;;;;;;;;5031887;28;20017;-75
2022/10/06 10:56:31;;;;;;;4.00;1.60;;;;;;;;;;5031597;28;20079;-76
2022/10/06 10:59:06;;;;;;;5.90;1.92;;;;;;;;;;5031467;28;20033;-75
2022/10/06 11:01:32;;;;;;;5.15;2.10;;;;;;;;;;5031782;28;20029;-75
2022/10/06 11:03:59;;;;;;;4.32;1.90;;;;;;;;;;5031658;28;20029;-76
2022/10/06 11:06:45;;;;;;;6.13;1.85;;;;;;;;;;5031686;28;20028;-75
2022/10/06 11:09:25;;;;;;;8.98;1.77;;;;;;;;;;5030163;28;20385;-74
2022/10/06 11:12:13;;;;;;;3.58;1.75;;;;;;;;;;5031368;28;20413;-75
2022/10/06 11:14:42;;;;;;;5.35;2.40;;;;;;;;;;5031489;28;20512;-75
2022/10/06 11:17:27;;;;;;;6.60;2.15;;;;;;;;;;5031251;28;20510;-75
2022/10/06 11:19:57;;;;;;;4.55;1.80;;;;;;;;;;5030947;28;20026;-75
2022/10/06 11:22:41;;;;;;;7.65;1.90;;;;;;;;;;5031170;28;20027;-75
2022/10/06 11:25:12;;;;;;;7.13;1.98;;;;;;;;;;5031344;28;20079;-75
2022/10/06 11:27:44;;;;;;;8.57;2.00;;;;;;;;;;5032398;28;20014;-75
2022/10/06 11:30:11;;;;;;;5.13;2.15;;;;;;;;;;5032153;28;20381;-75
2022/10/06 11:32:46;;;;;;;6.88;1.95;;;;;;;;;;5031862;28;20502;-75
2022/10/06 11:35:25;;;;;;;5.00;1.80;;;;;;;;;;5032370;28;20025;-74
2022/10/06 11:38:00;;;;;;;10.90;2.20;;;;;;;;;;5031940;28;20033;-75
2022/10/06 11:40:46;;;;;;;5.25;1.90;;;;;;;;;;5031599;28;20025;-75
2022/10/06 11:43:12;;;;;;;3.83;1.50;;;;;;;;;;5032089;28;20025;-75
2022/10/06 11:45:54;;;;;;;4.10;1.92;;;;;;;;;;5032109;28;20032;-73
2022/10/06 11:48:23;;;;;;;5.03;1.73;;;;;;;;;;5031692;28;20043;-76
2022/10/06 11:50:54;;;;;;;4.72;1.50;;;;;;;;;;5039696;28;20035;-75
2022/10/06 11:53:33;;;;;;;4.60;1.90;;;;;;;;;;5051323;28;20051;-75
2022/10/06 11:56:14;;;;;;;3.67;1.55;;;;;;;;;;5039113;28;20013;-75
2022/10/06 11:59:01;;;;;;;5.78;2.10;;;;;;;;;;5030759;28;20048;-75
2022/10/06 12:01:31;;;;;;;5.68;1.90;;;;;;;;;;5027563;28;20029;-75
2022/10/06 12:04:16;;;;;;;6.35;1.52;;;;;;;;;;5030619;28;20030;-76
2022/10/06 12:06:42;;;;;;;4.85;1.60;;;;;;;;;;5030557;28;20045;-75
2022/10/06 12:09:31;;;;;;;5.15;1.30;;;;;;;;;;5030102;28;20034;-76
2022/10/06 12:11:57;;;;;;;3.47;1.60;;;;;;;;;;5030074;28;20026;-74
2022/10/06 12:14:24;;;;;;;7.72;1.55;;;;;;;;;;5030529;28;20070;-76
2022/10/06 12:16:53;;;;;;;4.05;1.75;;;;;;;;;;5030278;28;20041;-75
2022/10/06 12:19:23;;;;;;;10.80;1.60;;;;;;;;;;5030557;28;20515;-75
2022/10/06 12:21:49;;;;;;;7.68;1.63;;;;;;;;;;5030149;28;20036;-75
2022/10/06 12:24:35;;;;;;;3.65;1.30;;;;;;;;;;5030418;28;20041;-74
2022/10/06 12:27:16;;;;;;;5.55;1.77;;;;;;;;;;5029229;28;20022;-75
2022/10/06 12:29:52;;;;;;;6.18;1.60;;;;;;;;;;5029796;28;20017;-75
2022/10/06 12:32:37;;;;;;;4.65;1.30;;;;;;;;;;5030329;28;20377;-76
2022/10/06 12:35:25;;;;;;;6.65;1.35;;;;;;;;;;5031996;28;20035;-76
2022/10/06 12:37:57;;;;;;;8.45;1.80;;;;;;;;;;5033890;28;20034;-75
2022/10/06 12:40:47;;;;;;;3.67;1.52;;;;;;;;;;5034544;28;20022;-75
2022/10/06 12:43:17;;;;;;;4.50;1.67;;;;;;;;;;5034432;28;20040;-74
2022/10/06 12:45:46;;;;;;;4.30;1.80;;;;;;;;;;5033918;28;20393;-76
2022/10/06 12:48:31;;;;;;;9.45;1.80;;;;;;;;;;5034377;28;20036;-74
2022/10/06 12:51:06;;;;;;;3.50;1.50;;;;;;;;;;5049317;28;20432;-75
2022/10/06 12:53:37;;;;;;;8.50;2.08;;;;;;;;;;5034316;28;20033;-75
2022/10/06 12:56:05;;;;;;;9.05;1.70;;;;;;;;;;5033741;28;20021;-75
2022/10/06 12:58:32;;;;;;;4.40;1.83;;;;;;;;;;5033876;28;20509;-75
2022/10/06 13:01:01;;;;;;;9.05;1.95;;;;;;;;;;5033100;28;20022;-75
2022/10/06 13:03:28;;;;;;;5.72;1.90;;;;;;;;;;5033590;28;20387;-76
2022/10/06 13:05:56;;;;;;;6.40;1.70;;;;;;;;;;5033716;28;20040;-76
2022/10/06 13:08:30;;;;;;;3.97;1.60;;;;;;;;;;5033797;28;20029;-76
2022/10/06 13:11:11;;;;;;;4.75;2.00;;;;;;;;;;5031625;28;20032;-76
2022/10/06 13:13:45;;;;;;;5.63;1.80;;;;;;;;;;5031720;28;20053;-76
2022/10/06 13:16:13;;;;;;;3.03;1.33;;;;;;;;;;5033428;28;20040;-75
2022/10/06 13:18:40;;;;;;;9.40;1.77;;;;;;;;;;5033314;28;20041;-76
2022/10/06 13:21:13;;;;;;;4.07;1.90;;;;;;;;;;5032724;28;20051;-75
2022/10/06 13:23:39;;;;;;;7.85;1.90;;;;;;;;;;5033240;28;20037;-76
2022/10/06 13:26:18;;;;;;;3.40;1.52;;;;;;;;;;5031729;28;20039;-75
2022/10/06 13:28:47;;;;;;;8.00;1.65;;;;;;;;;;5031664;28;20071;-76
2022/10/06 13:31:19;;;;;;;9.18;2.15;;;;;;;;;;5013039;28;20026;-76
2022/10/06 13:33:48;;;;;;;2.70;1.65;;;;;;;;;;5030325;28;20028;-76
2022/10/06 13:36:14;;;;;;;4.70;1.98;;;;;;;;;;5032784;28;20030;-75
2022/10/06 13:38:41;;;;;;;7.10;2.10;;;;;;;;;;5032566;28;20047;-75
2022/10/06 13:41:10;;;;;;;5.00;1.50;;;;;;;;;;5032990;28;20028;-75
2022/10/06 13:43:37;;;;;;;;;;;;;;;;;;5033440;28;20033;-74
2022/10/06 13:46:06;;;;;;;6.18;2.10;;;;;;;;;;5032880;28;19909;-75
2022/10/06 13:48:32;;;;;;;;;;;;;;;;;;5033627;28;20035;-75
2022/10/06 13:51:02;;;;;;;7.25;1.70;;;;;;;;;;5032710;28;20484;-75
2022/10/06 13:53:30;;;;;;;6.90;1.70;;;;;;;;;;5032840;28;20396;-74
2022/10/06 13:55:57;;;;;;;4.63;1.85;;;;;;;;;;5033016;28;20025;-75
2022/10/06 13:58:28;;;;;;;12.50;1.88;;;;;;;;;;5032547;28;20041;-75
2022/10/06 14:00:56;;;;;;;4.30;1.90;;;;;;;;;;5032653;28;20566;-75
2022/10/06 14:03:34;;;;;;;8.23;1.73;;;;;;;;;;5032544;28;20033;-76
2022/10/06 14:06:20;;;;;;;4.10;1.83;;;;;;;;;;5032653;28;20029;-75
2022/10/06 14:08:57;;;;;;;7.00;1.63;;;;;;;;;;5032552;28;20071;-75
2022/10/06 14:11:25;;;;;;;8.50;2.10;;;;;;;;;;5032536;28;20029;-75
2022/10/06 14:13:59;;;;;;;9.02;2.00;;;;;;;;;;5032099;28;20048;-75
2022/10/06 14:16:26;;;;;;;6.75;1.85;;;;;;;;;;5032571;28;20040;-76
2022/10/06 14:18:58;;;;;;;9.95;2.35;;;;;;;;;;5032702;28;20033;-75
2022/10/06 14:21:32;;;;;;;8.95;2.08;;;;;;;;;;5032543;28;20025;-75
2022/10/06 14:23:59;;;;;;;10.82;2.25;;;;;;;;;;5032599;28;20040;-75
2022/10/06 14:26:29;;;;;;;12.15;2.33;;;;;;;;;;5046997;28;20037;-75
2022/10/06 14:28:56;;;;;;;8.70;2.22;;;;;;;;;;5046808;28;20052;-75
2022/10/06 14:31:23;;;;;;;11.52;2.03;;;;;;;;;;5031840;28;20500;-74
2022/10/06 14:33:51;;;;;;;7.50;2.20;;;;;;;;;;5031825;28;20025;-75
2022/10/06 14:36:19;;;;;;;15.57;3.35;;;;;;;;;;5032121;28;20386;-75
2022/10/06 14:38:46;;;;;;;13.10;2.60;;;;;;;;;;5031479;28;20040;-73
2022/10/06 14:41:12;;;;;;;21.13;3.22;;;;;;;;;;5031755;28;20108;-74
2022/10/06 14:43:40;;;;;;;9.75;2.38;;;;;;;;;;5031152;28;20025;-74
2022/10/06 14:46:11;;;;;;;14.43;2.30;;;;;;;;;;5032117;28;20025;-74
2022/10/06 14:48:37;;;;;;;16.55;2.78;;;;;;;;;;5031316;28;20041;-74
2022/10/06 14:51:04;;;;;;;13.75;3.13;;;;;;;;;;5031774;28;20397;-74
2022/10/06 14:53:31;;;;;;;9.05;3.60;;;;;;;;;;5031303;28;20021;-74
2022/10/06 14:56:08;;;;;;;11.65;2.33;;;;;;;;;;5030467;28;20504;-75
2022/10/06 14:58:39;;;;;;;17.02;3.15;;;;;;;;;;5030493;28;20064;-74
2022/10/06 15:01:06;;;;;;;15.43;2.67;;;;;;;;;;5030573;28;20486;-75
2022/10/06 15:03:33;;;;;;;10.43;2.97;;;;;;;;;;5031517;28;20556;-75
2022/10/06 15:08:50;;;;;;;19.30;2.97;;;;;;;;;;5030901;28;20518;-75
2022/10/06 15:11:17;;;;;;;7.75;2.15;;;;;;;;;;5030562;28;20029;-75